createdAt,value
2018-06-20T00:00:49.589Z,16.56
2018-06-20T00:01:49.522Z,16.45
2018-06-20T00:02:49.441Z,16.42
2018-06-20T00:03:49.374Z,16.42
2018-06-20T00:04:49.296Z,16.38
2018-06-20T00:05:49.228Z,16.42
2018-06-20T00:06:49.148Z,16.41
2018-06-20T00:07:49.077Z,16.44
2018-06-20T00:08:49.011Z,16.42
2018-06-20T00:09:48.928Z,16.47
2018-06-20T00:10:48.863Z,16.45
2018-06-20T00:11:48.782Z,16.53
2018-06-20T00:12:48.721Z,16.52
2018-06-20T00:13:48.639Z,16.48
2018-06-20T00:14:48.573Z,16.50
2018-06-20T00:15:48.492Z,16.60
2018-06-20T00:16:48.424Z,16.60
2018-06-20T00:17:48.345Z,16.66
2018-06-20T00:18:48.279Z,16.73
2018-06-20T00:19:48.227Z,16.60
2018-06-20T00:20:48.135Z,16.70
2018-06-20T00:21:48.058Z,16.62
2018-06-20T00:22:47.984Z,16.67
2018-06-20T00:23:47.905Z,16.75
2018-06-20T00:24:47.840Z,16.75
2018-06-20T00:25:47.764Z,16.73
2018-06-20T00:26:47.695Z,16.62
2018-06-20T00:27:47.613Z,16.67
2018-06-20T00:28:47.548Z,16.53
2018-06-20T00:29:47.467Z,16.41
2018-06-20T00:30:47.400Z,16.47
2018-06-20T00:31:47.325Z,16.33
2018-06-20T00:32:47.257Z,16.38
2018-06-20T00:33:47.172Z,16.26
2018-06-20T00:34:47.106Z,16.18
2018-06-20T00:35:47.028Z,16.23
2018-06-20T00:36:46.971Z,16.10
2018-06-20T00:37:46.881Z,16.15
2018-06-20T00:38:46.815Z,16.10
2018-06-20T00:39:46.733Z,16.04
2018-06-20T00:40:46.667Z,16.01
2018-06-20T00:41:46.586Z,15.89
2018-06-20T00:42:46.522Z,15.89
2018-06-20T00:43:46.439Z,15.91
2018-06-20T00:44:46.373Z,15.91
2018-06-20T00:45:46.294Z,15.92
2018-06-20T00:46:46.752Z,15.88
2018-06-20T00:47:46.148Z,15.94
2018-06-20T00:48:46.085Z,16.00
2018-06-20T00:49:46.002Z,15.99
2018-06-20T00:50:45.936Z,15.91
2018-06-20T00:51:45.854Z,15.88
2018-06-20T00:52:45.787Z,15.89
2018-06-20T00:53:45.709Z,15.86
2018-06-20T00:54:45.640Z,15.86
2018-06-20T00:55:45.561Z,15.83
2018-06-20T00:56:45.494Z,15.85
2018-06-20T00:57:45.416Z,15.83
2018-06-20T00:58:45.347Z,15.88
2018-06-20T00:59:45.266Z,15.96
2018-06-20T01:00:45.199Z,15.89
2018-06-20T01:01:45.120Z,16.00
2018-06-20T01:02:45.056Z,15.99
2018-06-20T01:03:44.972Z,15.96
2018-06-20T01:04:44.902Z,15.91
2018-06-20T01:05:44.822Z,15.91
2018-06-20T01:06:44.757Z,15.96
2018-06-20T01:07:44.676Z,15.83
2018-06-20T01:08:44.611Z,15.73
2018-06-20T01:09:44.534Z,15.67
2018-06-20T01:10:44.463Z,15.57
2018-06-20T01:11:44.426Z,15.49
2018-06-20T01:12:44.314Z,15.38
2018-06-20T01:13:44.239Z,15.39
2018-06-20T01:14:44.168Z,15.48
2018-06-20T01:15:44.089Z,15.42
2018-06-20T01:16:44.022Z,15.39
2018-06-20T01:17:43.946Z,15.39
2018-06-20T01:18:43.873Z,15.38
2018-06-20T01:19:43.790Z,15.38
2018-06-20T01:20:44.726Z,15.38
2018-06-20T01:21:43.646Z,15.30
2018-06-20T01:22:43.586Z,15.38
2018-06-20T01:23:43.499Z,15.34
2018-06-20T01:24:43.433Z,15.38
2018-06-20T01:25:43.356Z,15.35
2018-06-20T01:26:43.283Z,15.38
2018-06-20T01:27:43.200Z,15.42
2018-06-20T01:28:43.141Z,15.27
2018-06-20T01:29:43.060Z,15.24
2018-06-20T01:30:42.989Z,15.16
2018-06-20T01:31:42.907Z,15.13
2018-06-20T01:32:42.837Z,15.18
2018-06-20T01:33:42.767Z,15.10
2018-06-20T01:34:42.693Z,15.15
2018-06-20T01:35:42.611Z,15.15
2018-06-20T01:36:42.545Z,15.16
2018-06-20T01:37:42.466Z,15.10
2018-06-20T01:38:42.402Z,15.21
2018-06-20T01:39:42.314Z,15.18
2018-06-20T01:40:42.252Z,15.15
2018-06-20T01:41:42.166Z,15.12
2018-06-20T01:42:42.102Z,15.27
2018-06-20T01:43:42.019Z,15.27
2018-06-20T01:44:41.955Z,15.24
2018-06-20T01:45:41.871Z,15.26
2018-06-20T01:46:41.817Z,15.31
2018-06-20T01:47:41.728Z,15.15
2018-06-20T01:48:41.666Z,15.26
2018-06-20T01:49:41.571Z,15.31
2018-06-20T01:50:41.511Z,15.26
2018-06-20T01:51:41.429Z,15.24
2018-06-20T01:52:41.364Z,15.27
2018-06-20T01:53:41.280Z,15.24
2018-06-20T01:54:41.213Z,15.28
2018-06-20T01:55:41.147Z,15.24
2018-06-20T01:56:41.066Z,15.26
2018-06-20T01:57:40.983Z,15.21
2018-06-20T01:58:40.917Z,15.13
2018-06-20T01:59:40.839Z,15.12
2018-06-20T02:00:40.769Z,15.18
2018-06-20T02:01:40.696Z,15.10
2018-06-20T02:02:40.630Z,15.01
2018-06-20T02:03:40.543Z,15.03
2018-06-20T02:04:40.470Z,15.09
2018-06-20T02:05:40.394Z,14.97
2018-06-20T02:06:40.324Z,14.94
2018-06-20T02:07:40.241Z,14.83
2018-06-20T02:08:40.177Z,14.88
2018-06-20T02:09:40.094Z,14.88
2018-06-20T02:10:40.026Z,14.83
2018-06-20T02:11:39.947Z,14.94
2018-06-20T02:12:39.878Z,14.88
2018-06-20T02:13:39.796Z,14.91
2018-06-20T02:14:39.730Z,14.88
2018-06-20T02:15:39.652Z,14.78
2018-06-20T02:16:39.583Z,14.85
2018-06-20T02:17:39.499Z,14.93
2018-06-20T02:18:39.433Z,14.88
2018-06-20T02:19:39.349Z,14.97
2018-06-20T02:20:39.287Z,15.08
2018-06-20T02:21:39.199Z,14.95
2018-06-20T02:22:39.142Z,14.97
2018-06-20T02:23:39.053Z,14.95
2018-06-20T02:24:38.997Z,14.94
2018-06-20T02:25:38.906Z,14.87
2018-06-20T02:26:38.843Z,14.85
2018-06-20T02:27:38.758Z,14.88
2018-06-20T02:28:38.689Z,14.91
2018-06-20T02:29:38.613Z,14.94
2018-06-20T02:30:38.545Z,14.90
2018-06-20T02:31:38.462Z,14.94
2018-06-20T02:32:38.394Z,14.95
2018-06-20T02:33:38.310Z,15.09
2018-06-20T02:34:38.251Z,15.12
2018-06-20T02:35:38.197Z,15.16
2018-06-20T02:36:38.148Z,15.10
2018-06-20T02:37:38.013Z,15.15
2018-06-20T02:38:37.946Z,15.18
2018-06-20T02:39:37.864Z,15.18
2018-06-20T02:40:37.809Z,15.24
2018-06-20T02:41:37.718Z,15.24
2018-06-20T02:42:37.651Z,15.18
2018-06-20T02:43:37.582Z,15.13
2018-06-20T02:44:37.503Z,15.12
2018-06-20T02:45:37.419Z,15.12
2018-06-20T02:46:37.351Z,15.15
2018-06-20T02:47:37.269Z,15.15
2018-06-20T02:48:37.199Z,15.15
2018-06-20T02:49:37.124Z,15.13
2018-06-20T02:50:37.068Z,15.08
2018-06-20T02:51:36.972Z,15.06
2018-06-20T02:52:36.922Z,15.12
2018-06-20T02:53:36.825Z,14.97
2018-06-20T02:54:36.760Z,14.98
2018-06-20T02:55:36.688Z,15.08
2018-06-20T02:56:36.609Z,15.13
2018-06-20T02:57:36.527Z,15.06
2018-06-20T02:58:36.459Z,15.09
2018-06-20T02:59:36.375Z,15.18
2018-06-20T03:00:36.315Z,15.15
2018-06-20T03:01:36.228Z,15.15
2018-06-20T03:02:36.167Z,15.16
2018-06-20T03:03:36.080Z,15.12
2018-06-20T03:04:36.012Z,15.18
2018-06-20T03:05:35.937Z,15.26
2018-06-20T03:06:35.868Z,15.24
2018-06-20T03:07:35.783Z,15.33
2018-06-20T03:08:35.729Z,15.24
2018-06-20T03:09:35.637Z,15.28
2018-06-20T03:10:35.579Z,15.26
2018-06-20T03:11:35.493Z,15.27
2018-06-20T03:12:35.416Z,15.34
2018-06-20T03:13:35.341Z,15.31
2018-06-20T03:14:35.278Z,15.38
2018-06-20T03:15:35.190Z,15.35
2018-06-20T03:16:35.123Z,15.35
2018-06-20T03:17:35.042Z,15.39
2018-06-20T03:18:34.974Z,15.41
2018-06-20T03:19:34.891Z,15.42
2018-06-20T03:20:34.824Z,15.45
2018-06-20T03:21:34.743Z,15.41
2018-06-20T03:22:34.677Z,15.42
2018-06-20T03:23:34.593Z,15.39
2018-06-20T03:24:34.529Z,15.43
2018-06-20T03:25:34.447Z,15.42
2018-06-20T03:26:34.382Z,15.45
2018-06-20T03:27:34.298Z,15.46
2018-06-20T03:28:34.236Z,15.46
2018-06-20T03:29:34.153Z,15.48
2018-06-20T03:30:34.084Z,15.49
2018-06-20T03:31:34.003Z,15.55
2018-06-20T03:32:33.936Z,15.41
2018-06-20T03:33:33.854Z,15.53
2018-06-20T03:34:33.789Z,15.49
2018-06-20T03:35:33.707Z,15.51
2018-06-20T03:36:33.636Z,15.42
2018-06-20T03:37:33.553Z,15.53
2018-06-20T03:38:33.490Z,15.49
2018-06-20T03:39:33.407Z,15.46
2018-06-20T03:40:33.344Z,15.51
2018-06-20T03:41:33.259Z,15.51
2018-06-20T03:42:33.192Z,15.42
2018-06-20T03:43:33.109Z,15.48
2018-06-20T03:44:33.043Z,15.38
2018-06-20T03:45:32.963Z,15.46
2018-06-20T03:46:32.894Z,15.39
2018-06-20T03:47:32.819Z,15.49
2018-06-20T03:48:32.746Z,15.41
2018-06-20T03:49:32.665Z,15.41
2018-06-20T03:50:32.604Z,15.43
2018-06-20T03:51:32.517Z,15.41
2018-06-20T03:52:32.450Z,15.39
2018-06-20T03:53:32.369Z,15.42
2018-06-20T03:54:32.301Z,15.42
2018-06-20T03:55:32.220Z,15.45
2018-06-20T03:56:32.151Z,15.35
2018-06-20T03:57:32.071Z,15.51
2018-06-20T03:58:32.011Z,15.45
2018-06-20T03:59:31.925Z,15.51
2018-06-20T04:00:31.860Z,15.53
2018-06-20T04:01:31.774Z,15.48
2018-06-20T04:02:31.709Z,15.46
2018-06-20T04:03:31.626Z,15.53
2018-06-20T04:04:31.559Z,15.57
2018-06-20T04:05:31.483Z,15.61
2018-06-20T04:06:31.414Z,15.61
2018-06-20T04:07:31.332Z,15.63
2018-06-20T04:08:31.261Z,15.70
2018-06-20T04:09:31.178Z,15.68
2018-06-20T04:10:31.124Z,15.73
2018-06-20T04:11:31.037Z,15.82
2018-06-20T04:12:30.967Z,15.76
2018-06-20T04:13:30.882Z,15.85
2018-06-20T04:14:30.820Z,15.86
2018-06-20T04:15:30.736Z,15.89
2018-06-20T04:16:30.671Z,15.85
2018-06-20T04:17:30.590Z,15.83
2018-06-20T04:18:30.522Z,15.88
2018-06-20T04:19:30.438Z,15.88
2018-06-20T04:20:30.443Z,15.88
2018-06-20T04:21:30.296Z,15.85
2018-06-20T04:22:30.222Z,15.91
2018-06-20T04:23:30.143Z,15.97
2018-06-20T04:24:30.072Z,16.06
2018-06-20T04:25:30.007Z,15.96
2018-06-20T04:26:29.922Z,16.01
2018-06-20T04:27:29.857Z,16.07
2018-06-20T04:28:29.775Z,16.10
2018-06-20T04:29:29.706Z,16.08
2018-06-20T04:30:29.628Z,16.08
2018-06-20T04:31:29.559Z,16.15
2018-06-20T04:32:29.472Z,16.18
2018-06-20T04:33:29.454Z,16.25
2018-06-20T04:34:29.331Z,16.25
2018-06-20T04:35:29.281Z,16.34
2018-06-20T04:36:29.264Z,16.30
2018-06-20T04:37:29.215Z,16.37
2018-06-20T04:38:29.034Z,16.33
2018-06-20T04:39:28.965Z,16.29
2018-06-20T04:40:29.030Z,16.34
2018-06-20T04:41:28.815Z,16.38
2018-06-20T04:42:28.792Z,16.44
2018-06-20T04:43:28.665Z,16.41
2018-06-20T04:44:28.607Z,16.40
2018-06-20T04:45:28.521Z,16.53
2018-06-20T04:46:28.451Z,16.45
2018-06-20T04:47:28.374Z,16.50
2018-06-20T04:48:28.295Z,16.45
2018-06-20T04:49:28.220Z,16.55
2018-06-20T04:50:28.401Z,16.50
2018-06-20T04:51:32.126Z,16.53
2018-06-20T04:52:29.891Z,16.57
2018-06-20T04:53:27.924Z,16.56
2018-06-20T04:54:27.953Z,16.60
2018-06-20T04:55:27.786Z,16.63
2018-06-20T04:56:27.756Z,16.65
2018-06-20T04:57:27.632Z,16.71
2018-06-20T04:58:27.672Z,16.67
2018-06-20T04:59:27.481Z,16.78
2018-06-20T05:00:27.417Z,16.77
2018-06-20T05:01:27.335Z,16.88
2018-06-20T05:02:27.291Z,16.82
2018-06-20T05:03:27.188Z,16.89
2018-06-20T05:04:27.201Z,16.80
2018-06-20T05:05:27.038Z,16.85
2018-06-20T05:06:27.009Z,17.02
2018-06-20T05:07:26.900Z,16.92
2018-06-20T05:08:26.918Z,16.95
2018-06-20T05:09:26.750Z,16.99
2018-06-20T05:10:26.685Z,17.11
2018-06-20T05:11:26.600Z,17.05
2018-06-20T05:12:26.553Z,17.08
2018-06-20T05:13:26.455Z,17.18
2018-06-20T05:14:26.450Z,17.21
2018-06-20T05:15:26.304Z,17.23
2018-06-20T05:16:26.259Z,17.20
2018-06-20T05:17:26.223Z,17.36
2018-06-20T05:18:26.086Z,17.29
2018-06-20T05:19:26.079Z,17.48
2018-06-20T05:20:25.934Z,17.44
2018-06-20T05:21:25.883Z,17.57
2018-06-20T05:22:25.791Z,17.55
2018-06-20T05:23:25.797Z,17.63
2018-06-20T05:24:25.646Z,17.64
2018-06-20T05:25:25.661Z,17.64
2018-06-20T05:26:25.504Z,17.64
2018-06-20T05:27:25.570Z,17.66
2018-06-20T05:28:25.350Z,17.69
2018-06-20T05:29:25.378Z,17.69
2018-06-20T05:30:25.206Z,17.84
2018-06-20T05:31:25.300Z,17.85
2018-06-20T05:32:25.064Z,17.92
2018-06-20T05:33:25.101Z,17.87
2018-06-20T05:34:24.915Z,17.94
2018-06-20T05:35:25.011Z,18.07
2018-06-20T05:36:24.767Z,18.10
2018-06-20T05:37:24.820Z,18.14
2018-06-20T05:38:24.624Z,18.07
2018-06-20T05:39:24.628Z,18.14
2018-06-20T05:40:24.475Z,18.27
2018-06-20T05:41:24.539Z,18.35
2018-06-20T05:42:24.330Z,18.44
2018-06-20T05:43:24.354Z,18.53
2018-06-20T05:44:24.182Z,18.52
2018-06-20T05:45:24.263Z,18.62
2018-06-20T05:46:24.039Z,18.68
2018-06-20T05:47:24.071Z,18.71
2018-06-20T05:48:23.891Z,18.79
2018-06-20T05:49:23.978Z,18.80
2018-06-20T05:50:23.747Z,18.80
2018-06-20T05:51:23.791Z,18.98
2018-06-20T05:52:23.600Z,19.11
2018-06-20T05:53:23.702Z,19.08
2018-06-20T05:54:23.458Z,19.23
2018-06-20T05:55:23.510Z,19.23
2018-06-20T05:56:23.308Z,19.28
2018-06-20T05:57:23.319Z,19.33
2018-06-20T05:58:23.167Z,19.32
2018-06-20T05:59:23.230Z,19.36
2018-06-20T06:00:23.022Z,19.46
2018-06-20T06:01:23.038Z,19.53
2018-06-20T06:02:22.888Z,19.46
2018-06-20T06:03:22.952Z,19.50
2018-06-20T06:04:22.735Z,19.54
2018-06-20T06:05:22.759Z,19.57
2018-06-20T06:06:22.598Z,19.57
2018-06-20T06:07:22.669Z,19.68
2018-06-20T06:08:22.445Z,19.73
2018-06-20T06:09:22.481Z,19.75
2018-06-20T06:10:22.301Z,19.79
2018-06-20T06:11:22.393Z,19.86
2018-06-20T06:12:22.154Z,19.90
2018-06-20T06:13:22.083Z,19.95
2018-06-20T06:14:22.107Z,19.93
2018-06-20T06:15:21.939Z,19.97
2018-06-20T06:16:21.870Z,19.95
2018-06-20T06:17:21.797Z,20.03
2018-06-20T06:18:21.825Z,20.01
2018-06-20T06:19:21.656Z,20.08
2018-06-20T06:20:21.739Z,20.24
2018-06-20T06:21:21.513Z,20.24
2018-06-20T06:22:21.546Z,20.40
2018-06-20T06:23:21.454Z,20.46
2018-06-20T06:24:21.301Z,20.49
2018-06-20T06:25:21.362Z,20.56
2018-06-20T06:26:21.153Z,20.68
2018-06-20T06:27:21.172Z,20.64
2018-06-20T06:28:21.007Z,20.66
2018-06-20T06:29:21.081Z,20.68
2018-06-20T06:30:20.867Z,20.80
2018-06-20T06:31:20.893Z,20.90
2018-06-20T06:32:20.722Z,20.90
2018-06-20T06:33:20.804Z,20.89
2018-06-20T06:34:20.578Z,20.93
2018-06-20T06:35:20.612Z,21.08
2018-06-20T06:36:20.439Z,20.98
2018-06-20T06:37:20.524Z,20.91
2018-06-20T06:38:20.293Z,21.01
2018-06-20T06:39:20.336Z,21.05
2018-06-20T06:40:20.156Z,21.16
2018-06-20T06:41:20.249Z,21.04
2018-06-20T06:42:20.014Z,21.11
2018-06-20T06:43:20.054Z,21.16
2018-06-20T06:44:19.867Z,21.27
2018-06-20T06:45:19.966Z,21.29
2018-06-20T06:46:19.728Z,21.35
2018-06-20T06:47:19.774Z,21.33
2018-06-20T06:48:19.585Z,21.36
2018-06-20T06:49:19.688Z,21.41
2018-06-20T06:50:19.443Z,21.42
2018-06-20T06:51:19.499Z,21.56
2018-06-20T06:52:19.301Z,21.54
2018-06-20T06:53:19.408Z,21.63
2018-06-20T06:54:19.157Z,21.72
2018-06-20T06:55:19.217Z,21.84
2018-06-20T06:56:19.019Z,21.85
2018-06-20T06:57:19.129Z,21.95
2018-06-20T06:58:18.875Z,21.94
2018-06-20T06:59:18.800Z,21.98
2018-06-20T07:00:18.734Z,22.01
2018-06-20T07:01:18.849Z,22.07
2018-06-20T07:02:18.592Z,22.13
2018-06-20T07:03:18.666Z,22.19
2018-06-20T07:04:18.447Z,22.31
2018-06-20T07:05:18.568Z,22.24
2018-06-20T07:06:18.310Z,22.38
2018-06-20T07:07:18.375Z,22.50
2018-06-20T07:08:18.172Z,22.53
2018-06-20T07:09:18.294Z,22.65
2018-06-20T07:10:18.030Z,22.63
2018-06-20T07:11:17.955Z,22.78
2018-06-20T07:12:18.002Z,22.87
2018-06-20T07:13:17.816Z,22.96
2018-06-20T07:14:17.915Z,23.00
2018-06-20T07:15:17.679Z,22.99
2018-06-20T07:16:17.720Z,23.07
2018-06-20T07:17:17.537Z,23.08
2018-06-20T07:18:17.630Z,23.17
2018-06-20T07:19:17.396Z,23.20
2018-06-20T07:20:17.448Z,23.37
2018-06-20T07:21:17.264Z,23.35
2018-06-20T07:22:17.355Z,23.43
2018-06-20T07:23:17.121Z,23.48
2018-06-20T07:24:17.206Z,23.61
2018-06-20T07:25:16.983Z,23.65
2018-06-20T07:26:17.076Z,23.74
2018-06-20T07:27:16.846Z,23.79
2018-06-20T07:28:16.771Z,23.83
2018-06-20T07:29:16.754Z,23.87
2018-06-20T07:30:16.870Z,24.00
2018-06-20T07:31:16.567Z,24.07
2018-06-20T07:32:16.604Z,24.11
2018-06-20T07:33:16.430Z,24.25
2018-06-20T07:34:16.675Z,24.29
2018-06-20T07:35:16.290Z,24.37
2018-06-20T07:36:16.443Z,24.40
2018-06-20T07:37:16.152Z,24.52
2018-06-20T07:38:16.237Z,24.63
2018-06-20T07:39:16.016Z,24.53
2018-06-20T07:40:16.146Z,24.71
2018-06-20T07:41:15.874Z,24.86
2018-06-20T07:42:15.958Z,24.91
2018-06-20T07:43:15.740Z,24.95
2018-06-20T07:44:15.867Z,25.10
2018-06-20T07:45:15.602Z,25.27
2018-06-20T07:46:15.678Z,25.19
2018-06-20T07:47:15.464Z,25.28
2018-06-20T07:48:15.590Z,25.47
2018-06-20T07:49:15.333Z,25.55
2018-06-20T07:50:15.403Z,25.55
2018-06-20T07:51:15.197Z,25.57
2018-06-20T07:52:15.312Z,25.68
2018-06-20T07:53:15.059Z,25.70
2018-06-20T07:54:14.990Z,25.79
2018-06-20T07:55:15.127Z,25.79
2018-06-20T07:56:14.852Z,25.86
2018-06-20T07:57:14.940Z,25.97
2018-06-20T07:58:14.722Z,25.93
2018-06-20T07:59:14.847Z,25.99
2018-06-20T08:00:14.588Z,26.12
2018-06-20T08:01:14.657Z,26.18
2018-06-20T08:02:14.451Z,26.27
2018-06-20T08:03:14.568Z,26.27
2018-06-20T08:04:14.315Z,26.28
2018-06-20T08:05:14.382Z,26.16
2018-06-20T08:06:14.239Z,26.11
2018-06-20T08:07:14.290Z,25.99
2018-06-20T08:08:14.046Z,25.92
2018-06-20T08:09:14.101Z,25.87
2018-06-20T08:10:13.916Z,25.89
2018-06-20T08:11:14.015Z,25.94
2018-06-20T08:12:13.789Z,25.90
2018-06-20T08:13:15.876Z,26.04
2018-06-20T08:14:13.647Z,26.24
2018-06-20T08:15:13.733Z,26.32
2018-06-20T08:16:13.512Z,26.43
2018-06-20T08:17:13.641Z,26.61
2018-06-20T08:18:13.383Z,26.72
2018-06-20T08:19:13.456Z,26.68
2018-06-20T08:20:13.253Z,26.90
2018-06-20T08:21:13.364Z,26.95
2018-06-20T08:22:13.124Z,27.17
2018-06-20T08:23:13.174Z,27.21
2018-06-20T08:24:12.983Z,27.27
2018-06-20T08:25:12.917Z,27.38
2018-06-20T08:26:12.988Z,27.34
2018-06-20T08:27:12.790Z,27.49
2018-06-20T08:28:12.903Z,27.53
2018-06-20T08:29:12.667Z,27.54
2018-06-20T08:30:12.709Z,27.60
2018-06-20T08:31:12.522Z,27.61
2018-06-20T08:32:12.620Z,27.61
2018-06-20T08:33:12.394Z,27.77
2018-06-20T08:34:12.539Z,27.84
2018-06-20T08:35:12.260Z,27.92
2018-06-20T08:36:12.341Z,27.92
2018-06-20T08:37:12.129Z,27.97
2018-06-20T08:38:12.058Z,27.62
2018-06-20T08:39:12.053Z,27.67
2018-06-20T08:40:11.929Z,27.69
2018-06-20T08:41:11.966Z,27.64
2018-06-20T08:42:11.804Z,27.69
2018-06-20T08:43:11.776Z,27.88
2018-06-20T08:44:11.672Z,27.99
2018-06-20T08:45:11.682Z,27.94
2018-06-20T08:46:11.545Z,27.83
2018-06-20T08:47:16.512Z,27.97
2018-06-20T08:48:11.409Z,27.99
2018-06-20T08:49:11.409Z,27.84
2018-06-20T08:50:11.280Z,27.60
2018-06-20T08:51:11.316Z,27.53
2018-06-20T08:52:11.149Z,27.53
2018-06-20T08:53:11.210Z,27.65
2018-06-20T08:54:11.881Z,27.39
2018-06-20T08:55:11.036Z,27.42
2018-06-20T08:56:10.897Z,27.44
2018-06-20T08:57:10.948Z,27.72
2018-06-20T08:58:10.761Z,27.84
2018-06-20T08:59:10.756Z,27.91
2018-06-20T09:00:10.631Z,27.94
2018-06-20T09:01:10.664Z,27.98
2018-06-20T09:02:10.533Z,27.94
2018-06-20T09:03:10.476Z,27.80
2018-06-20T09:04:10.373Z,27.84
2018-06-20T09:05:10.387Z,27.70
2018-06-20T09:06:10.256Z,27.64
2018-06-20T09:07:10.293Z,27.58
2018-06-20T09:08:10.117Z,27.57
2018-06-20T09:09:10.106Z,27.64
2018-06-20T09:10:09.988Z,27.60
2018-06-20T09:11:10.017Z,27.62
2018-06-20T09:12:09.861Z,27.54
2018-06-20T09:13:09.825Z,27.79
2018-06-20T09:14:09.731Z,27.87
2018-06-20T09:15:09.736Z,28.02
2018-06-20T09:16:09.604Z,28.17
2018-06-20T09:17:09.651Z,28.19
2018-06-20T09:18:09.466Z,28.24
2018-06-20T09:19:09.454Z,28.38
2018-06-20T09:20:09.342Z,28.43
2018-06-20T09:21:09.365Z,28.39
2018-06-20T09:22:09.299Z,28.26
2018-06-20T09:23:09.177Z,28.04
2018-06-20T09:24:09.091Z,28.06
2018-06-20T09:25:09.088Z,28.17
2018-06-20T09:26:08.959Z,28.07
2018-06-20T09:27:08.996Z,28.04
2018-06-20T09:28:08.834Z,28.01
2018-06-20T09:29:08.807Z,28.07
2018-06-20T09:30:08.766Z,28.10
2018-06-20T09:31:08.717Z,28.17
2018-06-20T09:32:08.577Z,28.24
2018-06-20T09:33:08.514Z,28.28
2018-06-20T09:34:08.531Z,28.32
2018-06-20T09:35:08.381Z,28.63
2018-06-20T09:36:08.339Z,28.73
2018-06-20T09:37:08.255Z,29.01
2018-06-20T09:38:08.252Z,29.16
2018-06-20T09:39:08.128Z,29.38
2018-06-20T09:40:08.169Z,29.50
2018-06-20T09:41:08.000Z,29.65
2018-06-20T09:42:07.970Z,29.66
2018-06-20T09:43:07.869Z,29.69
2018-06-20T09:44:07.885Z,29.63
2018-06-20T09:45:07.744Z,29.44
2018-06-20T09:46:07.793Z,29.18
2018-06-20T09:47:07.624Z,29.13
2018-06-20T09:48:07.605Z,29.14
2018-06-20T09:49:07.488Z,29.14
2018-06-20T09:50:07.512Z,29.13
2018-06-20T09:51:07.361Z,29.01
2018-06-20T09:52:07.323Z,29.10
2018-06-20T09:53:07.238Z,29.04
2018-06-20T09:54:07.232Z,28.65
2018-06-20T09:55:07.108Z,28.63
2018-06-20T09:56:07.145Z,28.63
2018-06-20T09:57:06.991Z,28.69
2018-06-20T09:58:06.951Z,28.90
2018-06-20T09:59:06.857Z,28.84
2018-06-20T10:00:06.865Z,28.90
2018-06-20T10:01:06.732Z,28.68
2018-06-20T10:02:06.775Z,28.43
2018-06-20T10:03:06.606Z,28.46
2018-06-20T10:04:06.582Z,28.50
2018-06-20T10:05:06.480Z,28.49
2018-06-20T10:06:06.494Z,28.51
2018-06-20T10:07:06.360Z,28.50
2018-06-20T10:08:06.292Z,28.50
2018-06-20T10:09:06.229Z,28.50
2018-06-20T10:10:06.214Z,28.56
2018-06-20T10:11:06.106Z,28.68
2018-06-20T10:12:06.125Z,28.83
2018-06-20T10:13:05.986Z,28.96
2018-06-20T10:14:05.933Z,29.11
2018-06-20T10:15:05.847Z,29.38
2018-06-20T10:16:05.840Z,29.40
2018-06-20T10:17:05.722Z,29.51
2018-06-20T10:18:05.755Z,29.29
2018-06-20T10:19:05.593Z,29.16
2018-06-20T10:20:05.564Z,29.01
2018-06-20T10:21:05.532Z,29.10
2018-06-20T10:22:05.477Z,29.25
2018-06-20T10:23:05.347Z,29.23
2018-06-20T10:24:05.388Z,29.41
2018-06-20T10:25:05.219Z,29.55
2018-06-20T10:26:05.196Z,29.62
2018-06-20T10:27:05.093Z,29.80
2018-06-20T10:28:05.103Z,29.92
2018-06-20T10:29:04.967Z,30.00
2018-06-20T10:30:05.019Z,29.89
2018-06-20T10:31:04.843Z,29.71
2018-06-20T10:32:04.826Z,29.66
2018-06-20T10:33:04.714Z,29.69
2018-06-20T10:34:04.733Z,29.80
2018-06-20T10:35:04.596Z,29.41
2018-06-20T10:36:04.542Z,29.19
2018-06-20T10:37:04.475Z,28.94
2018-06-20T10:38:05.479Z,28.66
2018-06-20T10:39:04.342Z,28.65
2018-06-20T10:40:04.380Z,28.63
2018-06-20T10:41:04.217Z,28.63
2018-06-20T10:42:04.184Z,28.72
2018-06-20T10:43:04.096Z,28.54
2018-06-20T10:44:04.087Z,28.49
2018-06-20T10:45:03.962Z,28.41
2018-06-20T10:46:04.040Z,28.41
2018-06-20T10:47:03.836Z,28.49
2018-06-20T10:48:03.804Z,28.62
2018-06-20T10:49:03.710Z,28.61
2018-06-20T10:50:03.717Z,28.69
2018-06-20T10:51:03.585Z,28.63
2018-06-20T10:52:03.636Z,28.56
2018-06-20T10:53:03.464Z,28.46
2018-06-20T10:54:03.440Z,28.36
2018-06-20T10:55:03.330Z,28.46
2018-06-20T10:56:03.355Z,28.39
2018-06-20T10:57:03.213Z,28.28
2018-06-20T10:58:03.263Z,28.29
2018-06-20T10:59:03.079Z,28.20
2018-06-20T11:00:03.078Z,28.17
2018-06-20T11:01:02.955Z,28.17
2018-06-20T11:02:02.977Z,28.06
2018-06-20T11:03:02.827Z,28.06
2018-06-20T11:04:02.786Z,28.14
2018-06-20T11:05:02.732Z,28.29
2018-06-20T11:06:02.702Z,28.34
2018-06-20T11:07:02.613Z,28.31
2018-06-20T11:08:02.617Z,28.36
2018-06-20T11:09:02.444Z,28.34
2018-06-20T11:10:02.418Z,28.41
2018-06-20T11:11:02.317Z,28.44
2018-06-20T11:12:02.331Z,28.36
2018-06-20T11:13:02.188Z,28.38
2018-06-20T11:14:02.240Z,28.38
2018-06-20T11:15:02.061Z,28.43
2018-06-20T11:16:02.049Z,28.32
2018-06-20T11:17:01.939Z,28.44
2018-06-20T11:18:01.960Z,28.43
2018-06-20T11:19:01.810Z,28.51
2018-06-20T11:20:01.770Z,28.50
2018-06-20T11:21:01.687Z,28.56
2018-06-20T11:22:01.678Z,28.53
2018-06-20T11:23:01.558Z,28.62
2018-06-20T11:24:01.592Z,28.65
2018-06-20T11:25:01.430Z,28.69
2018-06-20T11:26:01.400Z,28.73
2018-06-20T11:27:01.304Z,28.65
2018-06-20T11:28:01.308Z,28.61
2018-06-20T11:29:01.175Z,28.57
2018-06-20T11:30:01.224Z,28.38
2018-06-20T11:31:01.064Z,28.28
2018-06-20T11:32:01.031Z,28.16
2018-06-20T11:33:00.916Z,28.19
2018-06-20T11:34:00.943Z,28.22
2018-06-20T11:35:00.790Z,28.41
2018-06-20T11:36:00.756Z,28.44
2018-06-20T11:37:00.660Z,28.59
2018-06-20T11:38:00.659Z,28.87
2018-06-20T11:39:00.533Z,29.06
2018-06-20T11:40:00.570Z,29.13
2018-06-20T11:41:00.413Z,29.25
2018-06-20T11:42:00.383Z,29.37
2018-06-20T11:43:00.283Z,29.48
2018-06-20T11:44:00.291Z,29.69
2018-06-20T11:45:00.153Z,29.84
2018-06-20T11:46:00.205Z,29.96
2018-06-20T11:47:00.026Z,30.17
2018-06-20T11:48:00.016Z,30.19
2018-06-20T11:48:59.900Z,30.34
2018-06-20T11:49:59.984Z,30.36
2018-06-20T11:50:59.776Z,30.29
2018-06-20T11:51:59.732Z,30.22
2018-06-20T11:52:59.648Z,30.29
2018-06-20T11:53:59.645Z,30.12
2018-06-20T11:54:59.519Z,30.02
2018-06-20T11:55:59.553Z,29.96
2018-06-20T11:56:59.399Z,29.95
2018-06-20T11:57:59.361Z,29.97
2018-06-20T11:58:59.270Z,30.17
2018-06-20T11:59:59.275Z,30.27
2018-06-20T12:00:59.155Z,30.36
2018-06-20T12:01:59.210Z,30.43
2018-06-20T12:02:59.018Z,30.46
2018-06-20T12:03:59.064Z,30.59
2018-06-20T12:04:58.895Z,30.49
2018-06-20T12:05:58.902Z,30.55
2018-06-20T12:06:58.770Z,30.21
2018-06-20T12:07:58.812Z,30.03
2018-06-20T12:08:58.644Z,29.68
2018-06-20T12:09:58.628Z,29.48
2018-06-20T12:10:58.519Z,29.26
2018-06-20T12:11:58.544Z,29.13
2018-06-20T12:12:58.393Z,29.19
2018-06-20T12:13:58.445Z,29.34
2018-06-20T12:14:58.268Z,29.48
2018-06-20T12:15:58.257Z,29.48
2018-06-20T12:16:58.141Z,29.66
2018-06-20T12:17:58.165Z,29.68
2018-06-20T12:18:58.018Z,29.56
2018-06-20T12:19:58.077Z,29.48
2018-06-20T12:20:57.893Z,29.44
2018-06-20T12:21:57.938Z,29.37
2018-06-20T12:22:57.772Z,29.26
2018-06-20T12:23:57.798Z,29.18
2018-06-20T12:24:57.642Z,29.19
2018-06-20T12:25:57.607Z,29.26
2018-06-20T12:26:57.516Z,29.36
2018-06-20T12:27:57.517Z,29.56
2018-06-20T12:28:57.392Z,29.50
2018-06-20T12:29:57.433Z,29.44
2018-06-20T12:30:57.267Z,29.40
2018-06-20T12:31:57.239Z,29.44
2018-06-20T12:32:57.156Z,29.41
2018-06-20T12:33:57.149Z,29.23
2018-06-20T12:34:57.017Z,29.04
2018-06-20T12:35:57.056Z,28.87
2018-06-20T12:36:56.889Z,28.75
2018-06-20T12:37:56.869Z,28.73
2018-06-20T12:38:56.764Z,28.69
2018-06-20T12:39:56.776Z,28.75
2018-06-20T12:40:56.702Z,28.98
2018-06-20T12:41:56.688Z,29.01
2018-06-20T12:42:56.511Z,29.09
2018-06-20T12:43:56.496Z,29.31
2018-06-20T12:44:56.394Z,29.43
2018-06-20T12:45:56.405Z,29.58
2018-06-20T12:46:56.264Z,29.53
2018-06-20T12:47:56.216Z,29.58
2018-06-20T12:48:56.133Z,29.69
2018-06-20T12:49:56.125Z,29.73
2018-06-20T12:50:56.009Z,29.83
2018-06-20T12:51:56.037Z,30.00